sensor_id;sensor_type;location;lat;lon;timestamp;P1;durP1;ratioP1;P2;durP2;ratioP2
25341;SDS011;13298;48.792;9.154;2023-11-18T00:01:23;4.35;;;2.90;;
25341;SDS011;13298;48.792;9.154;2023-11-18T00:03:49;4.50;;;2.90;;
25341;SDS011;13298;48.792;9.154;2023-11-18T00:06:15;4.38;;;2.85;;
25341;SDS011;13298;48.792;9.154;2023-11-18T00:08:41;3.75;;;2.85;;
25341;SDS011;13298;48.792;9.154;2023-11-18T00:11:07;3.85;;;2.58;;
25341;SDS011;13298;48.792;9.154;2023-11-18T00:13:34;3.55;;;2.63;;
25341;SDS011;13298;48.792;9.154;2023-11-18T00:15:59;3.75;;;2.70;;
25341;SDS011;13298;48.792;9.154;2023-11-18T00:18:25;3.22;;;2.22;;
25341;SDS011;13298;48.792;9.154;2023-11-18T00:20:51;2.47;;;2.08;;
25341;SDS011;13298;48.792;9.154;2023-11-18T00:23:17;2.90;;;2.30;;
25341;SDS011;13298;48.792;9.154;2023-11-18T00:25:43;3.47;;;2.22;;
25341;SDS011;13298;48.792;9.154;2023-11-18T00:28:10;2.80;;;2.05;;
25341;SDS011;13298;48.792;9.154;2023-11-18T00:30:36;3.20;;;2.10;;
25341;SDS011;13298;48.792;9.154;2023-11-18T00:33:02;2.65;;;1.80;;
25341;SDS011;13298;48.792;9.154;2023-11-18T00:35:28;2.15;;;1.70;;
25341;SDS011;13298;48.792;9.154;2023-11-18T00:37:57;3.78;;;2.00;;
25341;SDS011;13298;48.792;9.154;2023-11-18T00:40:24;2.85;;;1.90;;
25341;SDS011;13298;48.792;9.154;2023-11-18T00:42:50;2.80;;;2.00;;
25341;SDS011;13298;48.792;9.154;2023-11-18T00:45:16;3.65;;;2.42;;
25341;SDS011;13298;48.792;9.154;2023-11-18T00:47:42;3.35;;;2.33;;
25341;SDS011;13298;48.792;9.154;2023-11-18T00:50:08;2.85;;;2.10;;
25341;SDS011;13298;48.792;9.154;2023-11-18T00:52:35;2.70;;;2.17;;
25341;SDS011;13298;48.792;9.154;2023-11-18T00:55:04;2.95;;;2.17;;
25341;SDS011;13298;48.792;9.154;2023-11-18T00:57:32;3.33;;;2.45;;
25341;SDS011;13298;48.792;9.154;2023-11-18T00:59:58;4.55;;;2.55;;
25341;SDS011;13298;48.792;9.154;2023-11-18T01:02:24;4.53;;;2.47;;
25341;SDS011;13298;48.792;9.154;2023-11-18T01:04:49;3.72;;;2.28;;
25341;SDS011;13298;48.792;9.154;2023-11-18T01:07:15;3.15;;;2.70;;
25341;SDS011;13298;48.792;9.154;2023-11-18T01:09:41;3.38;;;2.20;;
25341;SDS011;13298;48.792;9.154;2023-11-18T01:12:07;3.53;;;2.70;;
25341;SDS011;13298;48.792;9.154;2023-11-18T01:14:35;3.30;;;2.58;;
25341;SDS011;13298;48.792;9.154;2023-11-18T01:17:03;4.03;;;2.80;;
25341;SDS011;13298;48.792;9.154;2023-11-18T01:19:30;3.88;;;2.50;;
25341;SDS011;13298;48.792;9.154;2023-11-18T01:21:56;3.83;;;2.70;;
25341;SDS011;13298;48.792;9.154;2023-11-18T01:24:22;3.38;;;2.40;;
25341;SDS011;13298;48.792;9.154;2023-11-18T01:26:48;3.78;;;2.58;;
25341;SDS011;13298;48.792;9.154;2023-11-18T01:29:13;3.83;;;2.50;;
25341;SDS011;13298;48.792;9.154;2023-11-18T01:31:39;4.13;;;2.75;;
25341;SDS011;13298;48.792;9.154;2023-11-18T01:34:06;3.72;;;2.47;;
25341;SDS011;13298;48.792;9.154;2023-11-18T01:36:37;4.55;;;3.03;;
25341;SDS011;13298;48.792;9.154;2023-11-18T01:39:02;4.22;;;2.83;;
25341;SDS011;13298;48.792;9.154;2023-11-18T01:41:29;5.22;;;3.05;;
25341;SDS011;13298;48.792;9.154;2023-11-18T01:43:57;4.57;;;2.90;;
25341;SDS011;13298;48.792;9.154;2023-11-18T01:46:24;4.13;;;2.97;;
25341;SDS011;13298;48.792;9.154;2023-11-18T01:48:50;3.85;;;2.80;;
25341;SDS011;13298;48.792;9.154;2023-11-18T01:51:17;3.88;;;2.95;;
25341;SDS011;13298;48.792;9.154;2023-11-18T01:53:46;3.15;;;2.50;;
25341;SDS011;13298;48.792;9.154;2023-11-18T01:56:13;3.03;;;2.30;;
25341;SDS011;13298;48.792;9.154;2023-11-18T01:58:39;5.10;;;2.70;;
25341;SDS011;13298;48.792;9.154;2023-11-18T02:01:06;3.97;;;2.50;;
25341;SDS011;13298;48.792;9.154;2023-11-18T02:03:33;3.20;;;2.30;;
25341;SDS011;13298;48.792;9.154;2023-11-18T02:06:00;2.85;;;2.25;;
25341;SDS011;13298;48.792;9.154;2023-11-18T02:08:29;4.38;;;2.10;;
25341;SDS011;13298;48.792;9.154;2023-11-18T02:14:06;2.67;;;1.98;;
25341;SDS011;13298;48.792;9.154;2023-11-18T02:16:36;3.25;;;1.85;;
25341;SDS011;13298;48.792;9.154;2023-11-18T02:19:09;4.53;;;2.45;;
25341;SDS011;13298;48.792;9.154;2023-11-18T02:21:48;3.42;;;2.20;;
25341;SDS011;13298;48.792;9.154;2023-11-18T02:24:31;3.78;;;2.33;;
25341;SDS011;13298;48.792;9.154;2023-11-18T02:27:01;2.50;;;1.77;;
25341;SDS011;13298;48.792;9.154;2023-11-18T02:29:35;3.22;;;2.25;;
25341;SDS011;13298;48.792;9.154;2023-11-18T02:37:35;3.30;;;2.40;;
25341;SDS011;13298;48.792;9.154;2023-11-18T02:40:07;2.90;;;2.15;;
25341;SDS011;13298;48.792;9.154;2023-11-18T02:42:39;2.95;;;2.20;;
25341;SDS011;13298;48.792;9.154;2023-11-18T02:45:07;2.65;;;1.88;;
25341;SDS011;13298;48.792;9.154;2023-11-18T02:47:35;4.45;;;1.80;;
25341;SDS011;13298;48.792;9.154;2023-11-18T02:50:01;2.70;;;1.98;;
25341;SDS011;13298;48.792;9.154;2023-11-18T02:52:30;2.67;;;1.75;;
25341;SDS011;13298;48.792;9.154;2023-11-18T02:54:58;2.67;;;1.90;;
25341;SDS011;13298;48.792;9.154;2023-11-18T02:57:24;2.75;;;1.65;;
25341;SDS011;13298;48.792;9.154;2023-11-18T02:59:49;2.60;;;1.67;;
25341;SDS011;13298;48.792;9.154;2023-11-18T03:02:15;2.17;;;1.70;;
25341;SDS011;13298;48.792;9.154;2023-11-18T03:04:41;2.38;;;1.67;;
25341;SDS011;13298;48.792;9.154;2023-11-18T03:07:09;3.03;;;2.22;;
25341;SDS011;13298;48.792;9.154;2023-11-18T03:09:35;2.15;;;1.77;;
25341;SDS011;13298;48.792;9.154;2023-11-18T03:12:04;3.20;;;2.10;;
25341;SDS011;13298;48.792;9.154;2023-11-18T03:14:33;2.70;;;1.80;;
25341;SDS011;13298;48.792;9.154;2023-11-18T03:16:59;1.98;;;1.42;;
25341;SDS011;13298;48.792;9.154;2023-11-18T03:19:26;2.13;;;1.60;;
25341;SDS011;13298;48.792;9.154;2023-11-18T03:21:52;2.55;;;1.70;;
25341;SDS011;13298;48.792;9.154;2023-11-18T03:24:18;2.83;;;1.92;;
25341;SDS011;13298;48.792;9.154;2023-11-18T03:26:44;3.00;;;1.73;;
25341;SDS011;13298;48.792;9.154;2023-11-18T03:29:10;2.92;;;1.75;;
25341;SDS011;13298;48.792;9.154;2023-11-18T03:31:38;2.58;;;1.90;;
25341;SDS011;13298;48.792;9.154;2023-11-18T03:34:03;3.72;;;1.95;;
25341;SDS011;13298;48.792;9.154;2023-11-18T03:36:29;3.38;;;2.08;;
25341;SDS011;13298;48.792;9.154;2023-11-18T03:38:55;2.35;;;1.73;;
25341;SDS011;13298;48.792;9.154;2023-11-18T03:41:20;3.28;;;1.90;;
25341;SDS011;13298;48.792;9.154;2023-11-18T03:43:48;1.98;;;1.50;;
25341;SDS011;13298;48.792;9.154;2023-11-18T03:46:14;2.25;;;1.73;;
25341;SDS011;13298;48.792;9.154;2023-11-18T03:48:40;3.05;;;1.80;;
25341;SDS011;13298;48.792;9.154;2023-11-18T03:51:09;3.28;;;1.48;;
25341;SDS011;13298;48.792;9.154;2023-11-18T03:53:35;2.55;;;1.65;;
25341;SDS011;13298;48.792;9.154;2023-11-18T03:56:01;2.30;;;1.58;;
25341;SDS011;13298;48.792;9.154;2023-11-18T03:58:27;1.70;;;1.33;;
25341;SDS011;13298;48.792;9.154;2023-11-18T04:00:53;2.50;;;1.80;;
25341;SDS011;13298;48.792;9.154;2023-11-18T04:03:19;1.92;;;1.40;;
25341;SDS011;13298;48.792;9.154;2023-11-18T04:05:45;1.75;;;1.33;;
25341;SDS011;13298;48.792;9.154;2023-11-18T04:08:10;1.83;;;1.40;;
25341;SDS011;13298;48.792;9.154;2023-11-18T04:10:36;2.17;;;1.27;;
25341;SDS011;13298;48.792;9.154;2023-11-18T04:13:02;1.52;;;1.20;;
25341;SDS011;13298;48.792;9.154;2023-11-18T04:15:28;1.90;;;1.25;;
25341;SDS011;13298;48.792;9.154;2023-11-18T04:17:53;1.90;;;1.40;;
25341;SDS011;13298;48.792;9.154;2023-11-18T04:20:19;2.63;;;1.23;;
25341;SDS011;13298;48.792;9.154;2023-11-18T04:22:45;1.30;;;1.17;;
25341;SDS011;13298;48.792;9.154;2023-11-18T04:25:11;1.20;;;1.10;;
25341;SDS011;13298;48.792;9.154;2023-11-18T04:27:40;1.83;;;1.30;;
25341;SDS011;13298;48.792;9.154;2023-11-18T04:30:06;1.55;;;1.27;;
25341;SDS011;13298;48.792;9.154;2023-11-18T04:32:33;1.30;;;1.08;;
25341;SDS011;13298;48.792;9.154;2023-11-18T04:34:59;2.25;;;1.45;;
25341;SDS011;13298;48.792;9.154;2023-11-18T04:39:59;1.65;;;1.25;;
25341;SDS011;13298;48.792;9.154;2023-11-18T04:42:25;1.73;;;1.30;;
25341;SDS011;13298;48.792;9.154;2023-11-18T04:44:50;1.52;;;1.25;;
25341;SDS011;13298;48.792;9.154;2023-11-18T04:47:17;2.58;;;1.38;;
25341;SDS011;13298;48.792;9.154;2023-11-18T04:49:45;2.40;;;1.30;;
25341;SDS011;13298;48.792;9.154;2023-11-18T04:52:10;2.08;;;1.30;;
25341;SDS011;13298;48.792;9.154;2023-11-18T04:54:36;2.70;;;1.30;;
25341;SDS011;13298;48.792;9.154;2023-11-18T04:57:02;2.13;;;1.40;;
25341;SDS011;13298;48.792;9.154;2023-11-18T04:59:28;2.60;;;1.48;;
25341;SDS011;13298;48.792;9.154;2023-11-18T05:01:55;1.75;;;1.48;;
25341;SDS011;13298;48.792;9.154;2023-11-18T05:04:21;2.03;;;1.42;;
25341;SDS011;13298;48.792;9.154;2023-11-18T05:06:47;2.05;;;1.58;;
25341;SDS011;13298;48.792;9.154;2023-11-18T05:09:13;1.98;;;1.50;;
25341;SDS011;13298;48.792;9.154;2023-11-18T05:11:43;1.40;;;1.30;;
25341;SDS011;13298;48.792;9.154;2023-11-18T05:14:09;1.80;;;1.20;;
25341;SDS011;13298;48.792;9.154;2023-11-18T05:16:36;1.90;;;1.40;;
25341;SDS011;13298;48.792;9.154;2023-11-18T05:19:02;2.17;;;1.60;;
25341;SDS011;13298;48.792;9.154;2023-11-18T05:21:28;3.22;;;1.60;;
25341;SDS011;13298;48.792;9.154;2023-11-18T05:23:54;1.92;;;1.50;;
25341;SDS011;13298;48.792;9.154;2023-11-18T05:26:20;2.97;;;1.70;;
25341;SDS011;13298;48.792;9.154;2023-11-18T05:28:46;1.40;;;1.20;;
25341;SDS011;13298;48.792;9.154;2023-11-18T05:31:11;2.38;;;1.40;;
25341;SDS011;13298;48.792;9.154;2023-11-18T05:33:37;2.17;;;1.55;;
25341;SDS011;13298;48.792;9.154;2023-11-18T05:36:03;1.55;;;1.20;;
25341;SDS011;13298;48.792;9.154;2023-11-18T05:38:32;1.77;;;1.50;;
25341;SDS011;13298;48.792;9.154;2023-11-18T05:41:00;1.30;;;1.20;;
25341;SDS011;13298;48.792;9.154;2023-11-18T05:43:29;2.50;;;1.73;;
25341;SDS011;13298;48.792;9.154;2023-11-18T05:46:04;2.45;;;1.60;;
25341;SDS011;13298;48.792;9.154;2023-11-18T05:48:43;1.73;;;1.60;;
25341;SDS011;13298;48.792;9.154;2023-11-18T05:51:09;1.63;;;1.40;;
25341;SDS011;13298;48.792;9.154;2023-11-18T05:53:42;2.45;;;1.70;;
25341;SDS011;13298;48.792;9.154;2023-11-18T05:56:10;2.05;;;1.52;;
25341;SDS011;13298;48.792;9.154;2023-11-18T05:58:36;2.53;;;1.60;;
25341;SDS011;13298;48.792;9.154;2023-11-18T06:01:04;2.30;;;1.48;;
25341;SDS011;13298;48.792;9.154;2023-11-18T06:03:33;3.00;;;1.90;;
25341;SDS011;13298;48.792;9.154;2023-11-18T06:06:03;3.60;;;1.60;;
25341;SDS011;13298;48.792;9.154;2023-11-18T06:08:34;2.60;;;1.58;;
25341;SDS011;13298;48.792;9.154;2023-11-18T06:11:00;1.60;;;1.20;;
25341;SDS011;13298;48.792;9.154;2023-11-18T06:13:37;1.63;;;1.40;;
25341;SDS011;13298;48.792;9.154;2023-11-18T06:18:45;2.20;;;1.60;;
25341;SDS011;13298;48.792;9.154;2023-11-18T06:21:13;1.75;;;1.45;;
25341;SDS011;13298;48.792;9.154;2023-11-18T06:23:40;2.60;;;1.52;;
25341;SDS011;13298;48.792;9.154;2023-11-18T06:26:07;2.20;;;1.45;;
25341;SDS011;13298;48.792;9.154;2023-11-18T06:28:38;2.38;;;1.60;;
25341;SDS011;13298;48.792;9.154;2023-11-18T06:31:05;2.42;;;1.50;;
25341;SDS011;13298;48.792;9.154;2023-11-18T06:33:36;2.40;;;1.70;;
25341;SDS011;13298;48.792;9.154;2023-11-18T06:36:07;3.90;;;2.00;;
25341;SDS011;13298;48.792;9.154;2023-11-18T06:38:39;3.33;;;1.90;;
25341;SDS011;13298;48.792;9.154;2023-11-18T06:41:06;2.28;;;1.52;;
25341;SDS011;13298;48.792;9.154;2023-11-18T06:43:37;2.50;;;1.60;;
25341;SDS011;13298;48.792;9.154;2023-11-18T06:46:26;2.00;;;1.40;;
25341;SDS011;13298;48.792;9.154;2023-11-18T06:48:56;2.60;;;1.73;;
25341;SDS011;13298;48.792;9.154;2023-11-18T06:51:22;4.25;;;1.90;;
25341;SDS011;13298;48.792;9.154;2023-11-18T06:53:50;2.35;;;1.58;;
25341;SDS011;13298;48.792;9.154;2023-11-18T06:56:17;2.55;;;1.83;;
25341;SDS011;13298;48.792;9.154;2023-11-18T06:58:43;3.50;;;2.05;;
25341;SDS011;13298;48.792;9.154;2023-11-18T07:01:09;2.20;;;1.77;;
25341;SDS011;13298;48.792;9.154;2023-11-18T07:03:38;3.53;;;1.65;;
25341;SDS011;13298;48.792;9.154;2023-11-18T07:06:06;3.33;;;1.90;;
25341;SDS011;13298;48.792;9.154;2023-11-18T07:08:32;2.60;;;1.67;;
25341;SDS011;13298;48.792;9.154;2023-11-18T07:11:00;3.83;;;2.20;;
25341;SDS011;13298;48.792;9.154;2023-11-18T07:13:26;3.40;;;2.03;;
25341;SDS011;13298;48.792;9.154;2023-11-18T07:15:55;3.42;;;2.42;;
25341;SDS011;13298;48.792;9.154;2023-11-18T07:18:22;3.80;;;2.75;;
25341;SDS011;13298;48.792;9.154;2023-11-18T07:20:49;4.07;;;2.92;;
25341;SDS011;13298;48.792;9.154;2023-11-18T07:23:16;4.10;;;2.63;;
25341;SDS011;13298;48.792;9.154;2023-11-18T07:25:43;5.28;;;3.33;;
25341;SDS011;13298;48.792;9.154;2023-11-18T07:28:09;6.68;;;3.88;;
25341;SDS011;13298;48.792;9.154;2023-11-18T07:30:36;5.45;;;3.20;;
25341;SDS011;13298;48.792;9.154;2023-11-18T07:33:02;5.20;;;3.63;;
25341;SDS011;13298;48.792;9.154;2023-11-18T07:35:28;5.60;;;3.85;;
25341;SDS011;13298;48.792;9.154;2023-11-18T07:37:55;5.38;;;3.42;;
25341;SDS011;13298;48.792;9.154;2023-11-18T07:40:21;7.82;;;4.15;;
25341;SDS011;13298;48.792;9.154;2023-11-18T07:42:53;5.63;;;3.67;;
25341;SDS011;13298;48.792;9.154;2023-11-18T07:45:26;6.93;;;3.60;;
25341;SDS011;13298;48.792;9.154;2023-11-18T07:47:54;6.40;;;3.83;;
25341;SDS011;13298;48.792;9.154;2023-11-18T07:50:20;6.13;;;3.90;;
25341;SDS011;13298;48.792;9.154;2023-11-18T07:52:46;4.50;;;3.13;;
25341;SDS011;13298;48.792;9.154;2023-11-18T07:55:13;5.75;;;3.60;;
25341;SDS011;13298;48.792;9.154;2023-11-18T07:57:40;4.47;;;3.28;;
25341;SDS011;13298;48.792;9.154;2023-11-18T08:00:06;4.13;;;3.00;;
25341;SDS011;13298;48.792;9.154;2023-11-18T08:02:36;4.65;;;3.42;;
25341;SDS011;13298;48.792;9.154;2023-11-18T08:05:03;6.05;;;4.28;;
25341;SDS011;13298;48.792;9.154;2023-11-18T08:07:32;6.25;;;3.17;;
25341;SDS011;13298;48.792;9.154;2023-11-18T08:10:03;5.45;;;3.28;;
25341;SDS011;13298;48.792;9.154;2023-11-18T08:12:31;4.88;;;3.40;;
25341;SDS011;13298;48.792;9.154;2023-11-18T08:14:57;4.35;;;3.10;;
25341;SDS011;13298;48.792;9.154;2023-11-18T08:17:24;5.63;;;3.15;;
25341;SDS011;13298;48.792;9.154;2023-11-18T08:19:53;5.70;;;2.80;;
25341;SDS011;13298;48.792;9.154;2023-11-18T08:22:18;4.03;;;2.95;;
25341;SDS011;13298;48.792;9.154;2023-11-18T08:24:47;5.80;;;2.83;;
25341;SDS011;13298;48.792;9.154;2023-11-18T08:27:13;4.28;;;2.80;;
25341;SDS011;13298;48.792;9.154;2023-11-18T08:29:39;4.88;;;2.92;;
25341;SDS011;13298;48.792;9.154;2023-11-18T08:32:06;3.67;;;2.55;;
25341;SDS011;13298;48.792;9.154;2023-11-18T08:34:34;10.30;;;3.70;;
25341;SDS011;13298;48.792;9.154;2023-11-18T08:37:02;4.50;;;2.95;;
25341;SDS011;13298;48.792;9.154;2023-11-18T08:39:32;4.57;;;3.03;;
25341;SDS011;13298;48.792;9.154;2023-11-18T08:41:58;4.38;;;2.60;;
25341;SDS011;13298;48.792;9.154;2023-11-18T08:44:23;3.80;;;2.53;;
25341;SDS011;13298;48.792;9.154;2023-11-18T08:46:50;4.68;;;1.95;;
25341;SDS011;13298;48.792;9.154;2023-11-18T08:49:17;3.20;;;2.30;;
25341;SDS011;13298;48.792;9.154;2023-11-18T08:51:47;4.78;;;2.78;;
25341;SDS011;13298;48.792;9.154;2023-11-18T08:54:23;3.13;;;2.25;;
25341;SDS011;13298;48.792;9.154;2023-11-18T08:57:01;3.25;;;1.95;;
25341;SDS011;13298;48.792;9.154;2023-11-18T08:59:44;3.45;;;2.03;;
25341;SDS011;13298;48.792;9.154;2023-11-18T09:02:10;5.82;;;2.60;;
25341;SDS011;13298;48.792;9.154;2023-11-18T09:04:40;4.05;;;2.08;;
25341;SDS011;13298;48.792;9.154;2023-11-18T09:07:08;4.38;;;2.42;;
25341;SDS011;13298;48.792;9.154;2023-11-18T09:09:35;4.30;;;2.15;;
25341;SDS011;13298;48.792;9.154;2023-11-18T09:12:01;3.25;;;1.90;;
25341;SDS011;13298;48.792;9.154;2023-11-18T09:14:28;3.17;;;2.10;;
25341;SDS011;13298;48.792;9.154;2023-11-18T09:16:53;3.95;;;1.92;;
25341;SDS011;13298;48.792;9.154;2023-11-18T09:19:24;3.42;;;1.92;;
25341;SDS011;13298;48.792;9.154;2023-11-18T09:21:50;3.25;;;1.90;;
25341;SDS011;13298;48.792;9.154;2023-11-18T09:24:17;3.38;;;1.60;;
25341;SDS011;13298;48.792;9.154;2023-11-18T09:26:45;2.00;;;1.60;;
25341;SDS011;13298;48.792;9.154;2023-11-18T09:29:16;3.25;;;1.50;;
25341;SDS011;13298;48.792;9.154;2023-11-18T09:31:43;2.70;;;1.58;;
25341;SDS011;13298;48.792;9.154;2023-11-18T09:34:13;2.88;;;1.20;;
25341;SDS011;13298;48.792;9.154;2023-11-18T09:36:45;4.47;;;1.50;;
25341;SDS011;13298;48.792;9.154;2023-11-18T09:39:13;3.08;;;1.40;;
25341;SDS011;13298;48.792;9.154;2023-11-18T09:41:55;1.50;;;1.08;;
25341;SDS011;13298;48.792;9.154;2023-11-18T09:44:22;3.78;;;1.23;;
25341;SDS011;13298;48.792;9.154;2023-11-18T09:46:52;2.65;;;1.55;;
25341;SDS011;13298;48.792;9.154;2023-11-18T09:49:29;5.32;;;1.58;;
25341;SDS011;13298;48.792;9.154;2023-11-18T09:52:05;2.63;;;1.30;;
25341;SDS011;13298;48.792;9.154;2023-11-18T09:54:45;6.85;;;2.17;;
25341;SDS011;13298;48.792;9.154;2023-11-18T10:00:09;1.77;;;1.00;;
25341;SDS011;13298;48.792;9.154;2023-11-18T10:02:51;1.40;;;1.10;;
25341;SDS011;13298;48.792;9.154;2023-11-18T10:05:20;2.10;;;1.35;;
25341;SDS011;13298;48.792;9.154;2023-11-18T10:07:48;4.03;;;1.60;;
25341;SDS011;13298;48.792;9.154;2023-11-18T10:10:14;3.85;;;1.67;;
25341;SDS011;13298;48.792;9.154;2023-11-18T10:12:44;2.45;;;1.52;;
25341;SDS011;13298;48.792;9.154;2023-11-18T10:15:21;1.92;;;1.33;;
25341;SDS011;13298;48.792;9.154;2023-11-18T10:17:48;1.83;;;1.27;;
25341;SDS011;13298;48.792;9.154;2023-11-18T10:23:13;2.13;;;1.27;;
25341;SDS011;13298;48.792;9.154;2023-11-18T10:25:56;1.88;;;1.15;;
25341;SDS011;13298;48.792;9.154;2023-11-18T10:28:27;2.13;;;1.23;;
25341;SDS011;13298;48.792;9.154;2023-11-18T10:30:57;2.58;;;1.33;;
25341;SDS011;13298;48.792;9.154;2023-11-18T10:33:31;2.22;;;1.15;;
25341;SDS011;13298;48.792;9.154;2023-11-18T10:36:02;1.58;;;1.00;;
25341;SDS011;13298;48.792;9.154;2023-11-18T10:38:33;1.50;;;0.95;;
25341;SDS011;13298;48.792;9.154;2023-11-18T10:41:08;1.60;;;0.93;;
25341;SDS011;13298;48.792;9.154;2023-11-18T10:43:34;3.40;;;1.35;;
25341;SDS011;13298;48.792;9.154;2023-11-18T10:46:04;1.70;;;0.90;;
25341;SDS011;13298;48.792;9.154;2023-11-18T10:48:36;1.98;;;1.02;;
25341;SDS011;13298;48.792;9.154;2023-11-18T10:51:07;1.98;;;1.23;;
25341;SDS011;13298;48.792;9.154;2023-11-18T10:53:38;1.38;;;1.02;;
25341;SDS011;13298;48.792;9.154;2023-11-18T10:56:16;2.10;;;0.95;;
25341;SDS011;13298;48.792;9.154;2023-11-18T10:58:44;1.52;;;1.02;;
25341;SDS011;13298;48.792;9.154;2023-11-18T11:01:11;2.40;;;1.08;;
25341;SDS011;13298;48.792;9.154;2023-11-18T11:03:53;2.35;;;0.90;;
25341;SDS011;13298;48.792;9.154;2023-11-18T11:06:25;3.33;;;0.98;;
25341;SDS011;13298;48.792;9.154;2023-11-18T11:08:55;2.90;;;0.90;;
25341;SDS011;13298;48.792;9.154;2023-11-18T11:11:25;1.33;;;0.85;;
25341;SDS011;13298;48.792;9.154;2023-11-18T11:14:02;1.75;;;1.10;;
25341;SDS011;13298;48.792;9.154;2023-11-18T11:16:51;2.08;;;0.90;;
25341;SDS011;13298;48.792;9.154;2023-11-18T11:19:25;3.20;;;0.85;;
25341;SDS011;13298;48.792;9.154;2023-11-18T11:22:05;1.23;;;0.75;;
25341;SDS011;13298;48.792;9.154;2023-11-18T11:28:10;2.58;;;0.80;;
25341;SDS011;13298;48.792;9.154;2023-11-18T11:30:45;1.70;;;0.90;;
25341;SDS011;13298;48.792;9.154;2023-11-18T11:36:11;1.17;;;0.90;;
25341;SDS011;13298;48.792;9.154;2023-11-18T11:38:43;1.40;;;0.70;;
25341;SDS011;13298;48.792;9.154;2023-11-18T11:41:11;3.20;;;0.80;;
25341;SDS011;13298;48.792;9.154;2023-11-18T11:43:44;1.20;;;0.82;;
25341;SDS011;13298;48.792;9.154;2023-11-18T11:46:12;2.00;;;0.75;;
25341;SDS011;13298;48.792;9.154;2023-11-18T11:48:39;1.48;;;0.90;;
25341;SDS011;13298;48.792;9.154;2023-11-18T11:54:11;2.78;;;0.90;;
25341;SDS011;13298;48.792;9.154;2023-11-18T11:59:17;1.73;;;0.70;;
25341;SDS011;13298;48.792;9.154;2023-11-18T12:02:14;3.45;;;0.98;;
25341;SDS011;13298;48.792;9.154;2023-11-18T12:04:43;1.23;;;0.88;;
25341;SDS011;13298;48.792;9.154;2023-11-18T12:07:10;1.30;;;0.90;;
25341;SDS011;13298;48.792;9.154;2023-11-18T12:09:40;3.17;;;0.90;;
25341;SDS011;13298;48.792;9.154;2023-11-18T12:12:17;3.25;;;0.90;;
25341;SDS011;13298;48.792;9.154;2023-11-18T12:14:50;3.15;;;0.70;;
25341;SDS011;13298;48.792;9.154;2023-11-18T12:20:39;1.42;;;0.88;;
25341;SDS011;13298;48.792;9.154;2023-11-18T12:23:12;2.03;;;0.60;;
25341;SDS011;13298;48.792;9.154;2023-11-18T12:25:43;0.68;;;0.50;;
25341;SDS011;13298;48.792;9.154;2023-11-18T12:28:30;1.02;;;0.73;;
25341;SDS011;13298;48.792;9.154;2023-11-18T12:31:00;1.92;;;0.70;;
25341;SDS011;13298;48.792;9.154;2023-11-18T12:36:31;2.85;;;0.65;;
25341;SDS011;13298;48.792;9.154;2023-11-18T12:39:32;1.10;;;0.63;;
25341;SDS011;13298;48.792;9.154;2023-11-18T12:42:20;1.80;;;0.80;;
25341;SDS011;13298;48.792;9.154;2023-11-18T12:48:08;1.13;;;0.80;;
25341;SDS011;13298;48.792;9.154;2023-11-18T12:50:42;3.05;;;0.80;;
25341;SDS011;13298;48.792;9.154;2023-11-18T12:53:10;1.90;;;0.70;;
25341;SDS011;13298;48.792;9.154;2023-11-18T12:55:39;3.47;;;1.00;;
25341;SDS011;13298;48.792;9.154;2023-11-18T12:58:07;1.88;;;0.50;;
25341;SDS011;13298;48.792;9.154;2023-11-18T13:00:32;1.23;;;0.70;;
25341;SDS011;13298;48.792;9.154;2023-11-18T13:03:00;1.35;;;0.80;;
25341;SDS011;13298;48.792;9.154;2023-11-18T13:05:26;1.88;;;0.93;;
25341;SDS011;13298;48.792;9.154;2023-11-18T13:07:55;1.92;;;0.73;;
25341;SDS011;13298;48.792;9.154;2023-11-18T13:10:22;1.63;;;0.80;;
25341;SDS011;13298;48.792;9.154;2023-11-18T13:12:49;3.30;;;1.00;;
25341;SDS011;13298;48.792;9.154;2023-11-18T13:15:15;1.63;;;1.00;;
25341;SDS011;13298;48.792;9.154;2023-11-18T13:17:56;3.00;;;1.00;;
25341;SDS011;13298;48.792;9.154;2023-11-18T13:20:25;1.90;;;1.13;;
25341;SDS011;13298;48.792;9.154;2023-11-18T13:22:51;2.80;;;1.08;;
25341;SDS011;13298;48.792;9.154;2023-11-18T13:25:20;3.28;;;1.00;;
25341;SDS011;13298;48.792;9.154;2023-11-18T13:27:48;2.20;;;0.90;;
25341;SDS011;13298;48.792;9.154;2023-11-18T13:30:14;3.30;;;0.98;;
25341;SDS011;13298;48.792;9.154;2023-11-18T13:32:42;2.45;;;0.90;;
25341;SDS011;13298;48.792;9.154;2023-11-18T13:35:08;1.27;;;0.80;;
25341;SDS011;13298;48.792;9.154;2023-11-18T13:37:38;2.92;;;1.17;;
25341;SDS011;13298;48.792;9.154;2023-11-18T13:40:06;3.47;;;1.00;;
25341;SDS011;13298;48.792;9.154;2023-11-18T13:42:33;1.38;;;1.10;;
25341;SDS011;13298;48.792;9.154;2023-11-18T13:45:03;4.95;;;1.25;;
25341;SDS011;13298;48.792;9.154;2023-11-18T13:47:36;3.10;;;1.17;;
25341;SDS011;13298;48.792;9.154;2023-11-18T13:50:05;2.80;;;1.35;;
25341;SDS011;13298;48.792;9.154;2023-11-18T13:52:35;2.95;;;1.27;;
25341;SDS011;13298;48.792;9.154;2023-11-18T13:55:04;2.42;;;1.20;;
25341;SDS011;13298;48.792;9.154;2023-11-18T13:57:31;3.78;;;1.40;;
25341;SDS011;13298;48.792;9.154;2023-11-18T13:59:57;4.47;;;1.48;;
25341;SDS011;13298;48.792;9.154;2023-11-18T14:02:24;3.13;;;1.00;;
25341;SDS011;13298;48.792;9.154;2023-11-18T14:04:50;3.08;;;1.35;;
25341;SDS011;13298;48.792;9.154;2023-11-18T14:07:16;3.50;;;1.27;;
25341;SDS011;13298;48.792;9.154;2023-11-18T14:09:45;1.77;;;1.27;;
25341;SDS011;13298;48.792;9.154;2023-11-18T14:12:12;3.08;;;1.48;;
25341;SDS011;13298;48.792;9.154;2023-11-18T14:14:39;4.40;;;1.73;;
25341;SDS011;13298;48.792;9.154;2023-11-18T14:17:05;3.20;;;1.38;;
25341;SDS011;13298;48.792;9.154;2023-11-18T14:19:35;3.67;;;1.40;;
25341;SDS011;13298;48.792;9.154;2023-11-18T14:22:02;6.68;;;1.67;;
25341;SDS011;13298;48.792;9.154;2023-11-18T14:24:32;4.55;;;1.42;;
25341;SDS011;13298;48.792;9.154;2023-11-18T14:26:59;4.40;;;1.67;;
25341;SDS011;13298;48.792;9.154;2023-11-18T14:29:24;5.70;;;1.90;;
25341;SDS011;13298;48.792;9.154;2023-11-18T14:31:52;2.13;;;1.52;;
25341;SDS011;13298;48.792;9.154;2023-11-18T14:34:19;3.80;;;1.73;;
25341;SDS011;13298;48.792;9.154;2023-11-18T14:36:45;4.00;;;1.42;;
25341;SDS011;13298;48.792;9.154;2023-11-18T14:39:10;4.70;;;1.50;;
25341;SDS011;13298;48.792;9.154;2023-11-18T14:41:39;2.30;;;1.33;;
25341;SDS011;13298;48.792;9.154;2023-11-18T14:44:05;2.95;;;1.80;;
25341;SDS011;13298;48.792;9.154;2023-11-18T14:46:34;3.72;;;1.60;;
25341;SDS011;13298;48.792;9.154;2023-11-18T14:49:01;4.20;;;1.48;;
25341;SDS011;13298;48.792;9.154;2023-11-18T14:51:26;2.88;;;1.50;;
25341;SDS011;13298;48.792;9.154;2023-11-18T14:53:52;5.07;;;1.25;;
25341;SDS011;13298;48.792;9.154;2023-11-18T14:56:18;4.05;;;1.70;;
25341;SDS011;13298;48.792;9.154;2023-11-18T14:58:44;2.88;;;1.50;;
25341;SDS011;13298;48.792;9.154;2023-11-18T15:01:14;2.75;;;1.55;;
25341;SDS011;13298;48.792;9.154;2023-11-18T15:03:40;2.53;;;1.80;;
25341;SDS011;13298;48.792;9.154;2023-11-18T15:06:06;5.03;;;1.77;;
25341;SDS011;13298;48.792;9.154;2023-11-18T15:08:35;2.47;;;1.50;;
25341;SDS011;13298;48.792;9.154;2023-11-18T15:11:00;3.70;;;1.60;;
25341;SDS011;13298;48.792;9.154;2023-11-18T15:13:26;2.20;;;1.88;;
25341;SDS011;13298;48.792;9.154;2023-11-18T15:15:52;3.33;;;1.65;;
25341;SDS011;13298;48.792;9.154;2023-11-18T15:18:18;3.17;;;1.70;;
25341;SDS011;13298;48.792;9.154;2023-11-18T15:20:44;2.58;;;1.52;;
25341;SDS011;13298;48.792;9.154;2023-11-18T15:23:13;5.57;;;2.00;;
25341;SDS011;13298;48.792;9.154;2023-11-18T15:25:50;4.32;;;1.90;;
25341;SDS011;13298;48.792;9.154;2023-11-18T15:28:16;4.93;;;1.40;;
25341;SDS011;13298;48.792;9.154;2023-11-18T15:30:43;4.25;;;1.60;;
25341;SDS011;13298;48.792;9.154;2023-11-18T15:33:09;5.15;;;1.92;;
25341;SDS011;13298;48.792;9.154;2023-11-18T15:35:38;2.70;;;1.80;;
25341;SDS011;13298;48.792;9.154;2023-11-18T15:38:06;2.75;;;1.58;;